createdAt,value
2018-08-08T00:00:32.788Z,26.73
2018-08-08T00:01:13.191Z,26.81
2018-08-08T00:01:53.688Z,26.84
2018-08-08T00:02:34.037Z,26.84
2018-08-08T00:03:14.455Z,26.86
2018-08-08T00:03:54.891Z,26.96
2018-08-08T00:04:35.275Z,27.01
2018-08-08T00:05:15.676Z,26.97
2018-08-08T00:05:56.146Z,27.09
2018-08-08T00:06:36.696Z,27.12
2018-08-08T00:07:17.021Z,27.06
2018-08-08T00:07:57.444Z,27.13
2018-08-08T00:08:37.838Z,27.13
2018-08-08T00:09:18.564Z,27.16
2018-08-08T00:09:58.690Z,27.21
2018-08-08T00:10:39.436Z,27.16
2018-08-08T00:11:19.850Z,27.12
2018-08-08T00:12:00.218Z,27.13
2018-08-08T00:12:40.691Z,27.13
2018-08-08T00:13:21.089Z,27.2
2018-08-08T00:14:01.500Z,27.18
2018-08-08T00:14:41.910Z,27.2
2018-08-08T00:15:22.429Z,27.16
2018-08-08T00:16:02.753Z,27.2
2018-08-08T00:16:43.232Z,27.15
2018-08-08T00:17:23.839Z,27.21
2018-08-08T00:18:04.186Z,27.18
2018-08-08T00:18:44.573Z,27.2
2018-08-08T00:19:24.996Z,27.15
2018-08-08T00:20:05.623Z,27.18
2018-08-08T00:20:45.958Z,27.2
2018-08-08T00:21:26.485Z,27.15
2018-08-08T00:22:06.907Z,27.09
2018-08-08T00:22:47.825Z,27.13
2018-08-08T00:23:28.593Z,27.2
2018-08-08T00:24:09.013Z,27.18
2018-08-08T00:24:49.542Z,27.12
2018-08-08T00:25:29.861Z,27.23
2018-08-08T00:26:10.350Z,27.18
2018-08-08T00:26:50.696Z,27.25
2018-08-08T00:27:31.220Z,27.18
2018-08-08T00:28:11.609Z,27.16
2018-08-08T00:28:51.975Z,27.09
2018-08-08T00:29:32.427Z,27.21
2018-08-08T00:30:12.914Z,27.24
2018-08-08T00:30:53.373Z,27.2
2018-08-08T00:31:34.225Z,27.23
2018-08-08T00:32:14.625Z,27.18
2018-08-08T00:32:55.698Z,27.15
2018-08-08T00:33:35.589Z,27.15
2018-08-08T00:34:16.243Z,27.13
2018-08-08T00:34:56.926Z,27.12
2018-08-08T00:35:37.339Z,27.05
2018-08-08T00:36:18.120Z,27.03
2018-08-08T00:36:59.239Z,27.09
2018-08-08T00:37:39.777Z,26.96
2018-08-08T00:38:20.042Z,26.97
2018-08-08T00:39:00.852Z,27.02
2018-08-08T00:39:41.521Z,26.96
2018-08-08T00:40:22.139Z,26.91
2018-08-08T00:41:02.654Z,26.88
2018-08-08T00:41:42.956Z,26.87
2018-08-08T00:42:23.865Z,26.78
2018-08-08T00:43:04.255Z,26.83
2018-08-08T00:43:47.210Z,26.83
2018-08-08T00:44:27.693Z,26.71
2018-08-08T00:45:08.226Z,26.75
2018-08-08T00:45:49.363Z,26.73
2018-08-08T00:46:30.297Z,26.73
2018-08-08T00:47:11.103Z,26.73
2018-08-08T00:47:52.883Z,26.79
2018-08-08T00:48:34.110Z,26.76
2018-08-08T00:49:14.685Z,26.76
2018-08-08T00:49:54.967Z,26.81
2018-08-08T00:50:35.423Z,26.76
2018-08-08T00:51:16.056Z,26.81
2018-08-08T00:51:56.296Z,26.79
2018-08-08T00:52:36.865Z,26.88
2018-08-08T00:53:17.498Z,26.91
2018-08-08T00:53:57.812Z,26.98
2018-08-08T00:54:38.436Z,26.96
2018-08-08T00:55:18.868Z,26.9
2018-08-08T00:55:59.165Z,26.93
2018-08-08T00:56:41.494Z,26.9
2018-08-08T00:57:21.888Z,26.98
2018-08-08T00:58:02.360Z,27.08
2018-08-08T00:58:42.801Z,27.08
2018-08-08T00:59:23.365Z,27.16
2018-08-08T01:00:03.765Z,27.23
2018-08-08T01:00:44.608Z,27.23
2018-08-08T01:01:25.407Z,27.35
2018-08-08T01:02:05.900Z,27.42
2018-08-08T01:02:46.316Z,27.35
2018-08-08T01:03:26.910Z,27.43
2018-08-08T01:04:07.339Z,27.59
2018-08-08T01:04:47.924Z,27.61
2018-08-08T01:05:29.269Z,27.58
2018-08-08T01:06:09.316Z,27.66
2018-08-08T01:06:52.404Z,27.61
2018-08-08T01:07:32.781Z,27.61
2018-08-08T01:08:13.370Z,27.62
2018-08-08T01:08:53.695Z,27.71
2018-08-08T01:09:34.667Z,27.68
2018-08-08T01:10:15.822Z,27.78
2018-08-08T01:10:57.828Z,27.78
2018-08-08T01:11:39.624Z,27.83
2018-08-08T01:12:19.898Z,27.84
2018-08-08T01:12:59.985Z,27.84
2018-08-08T01:13:40.346Z,27.9
2018-08-08T01:14:21.100Z,27.9
2018-08-08T01:15:01.623Z,27.86
2018-08-08T01:15:42.885Z,27.87
2018-08-08T01:16:24.139Z,27.93
2018-08-08T01:17:06.436Z,27.88
2018-08-08T01:17:56.415Z,27.95
2018-08-08T01:18:37.153Z,27.95
2018-08-08T01:19:19.701Z,27.87
2018-08-08T01:19:59.548Z,27.95
2018-08-08T01:20:54.397Z,28.03
2018-08-08T01:21:34.904Z,27.99
2018-08-08T01:22:15.896Z,28.01
2018-08-08T01:22:56.382Z,27.99
2018-08-08T01:23:37.186Z,27.98
2018-08-08T01:24:17.794Z,28.01
2018-08-08T01:24:58.435Z,28.08
2018-08-08T01:25:43.718Z,28.06
2018-08-08T01:26:24.381Z,28.02
2018-08-08T01:27:05.403Z,28.18
2018-08-08T01:27:45.986Z,28.23
2018-08-08T01:28:27.242Z,28.17
2018-08-08T01:29:07.925Z,28.25
2018-08-08T01:29:48.336Z,28.18
2018-08-08T01:30:29.476Z,28.27
2018-08-08T01:32:00.246Z,28.36
2018-08-08T01:32:39.333Z,28.25
2018-08-08T01:33:19.671Z,28.33
2018-08-08T01:34:01.951Z,28.27
2018-08-08T01:34:44.134Z,28.36
2018-08-08T01:35:25.089Z,28.24
2018-08-08T01:36:05.900Z,28.4
2018-08-08T01:36:49.866Z,28.35
2018-08-08T01:37:30.971Z,28.28
2018-08-08T01:39:47.851Z,28.28
2018-08-08T01:44:25.531Z,28.25
2018-08-08T01:45:06.047Z,28.32
2018-08-08T01:45:46.666Z,28.27
2018-08-08T01:46:26.950Z,28.36
2018-08-08T01:47:07.329Z,28.36
2018-08-08T01:47:47.818Z,28.21
2018-08-08T01:48:28.219Z,28.28
2018-08-08T01:49:08.902Z,28.3
2018-08-08T01:49:49.161Z,28.32
2018-08-08T01:50:29.621Z,28.24
2018-08-08T01:51:09.980Z,28.23
2018-08-08T01:51:50.437Z,28.27
2018-08-08T01:52:30.867Z,28.27
2018-08-08T01:53:11.246Z,28.27
2018-08-08T01:53:51.638Z,28.32
2018-08-08T01:54:32.023Z,28.27
2018-08-08T01:55:12.416Z,28.24
2018-08-08T01:55:52.844Z,28.27
2018-08-08T01:56:33.204Z,28.27
2018-08-08T01:57:13.616Z,28.27
2018-08-08T01:57:54.053Z,28.3
2018-08-08T01:58:35.231Z,28.3
2018-08-08T01:59:15.265Z,28.17
2018-08-08T01:59:55.654Z,28.13
2018-08-08T02:00:36.055Z,28.08
2018-08-08T02:01:16.502Z,28.06
2018-08-08T02:01:56.923Z,28.06
2018-08-08T02:02:37.298Z,28.02
2018-08-08T02:03:17.666Z,27.9
2018-08-08T02:03:58.101Z,27.99
2018-08-08T02:04:38.551Z,27.91
2018-08-08T02:05:18.897Z,27.81
2018-08-08T02:05:59.363Z,27.78
2018-08-08T02:06:39.743Z,27.77
2018-08-08T02:07:20.136Z,27.69
2018-08-08T02:08:00.559Z,27.69
2018-08-08T02:08:41.003Z,27.69
2018-08-08T02:09:21.375Z,27.69
2018-08-08T02:10:01.805Z,27.58
2018-08-08T02:10:42.256Z,27.59
2018-08-08T02:11:22.641Z,27.5
2018-08-08T02:12:05.732Z,27.5
2018-08-08T02:12:46.102Z,27.5
2018-08-08T02:13:26.417Z,27.52
2018-08-08T02:14:06.865Z,27.48
2018-08-08T02:14:47.226Z,27.43
2018-08-08T02:15:27.683Z,27.39
2018-08-08T02:16:08.154Z,27.42
2018-08-08T02:27:28.267Z,26.32
2018-08-08T02:33:21.803Z,25.72
2018-08-08T02:36:45.448Z,24.94
2018-08-08T02:37:27.047Z,24.93
2018-08-08T02:38:07.433Z,24.89
2018-08-08T02:38:48.049Z,24.9
2018-08-08T02:47:46.572Z,24.61
2018-08-08T02:48:27.940Z,24.56
2018-08-08T02:49:08.355Z,24.46
2018-08-08T02:49:49.543Z,24.37
2018-08-08T02:50:32.895Z,24.34
2018-08-08T02:51:21.568Z,24.31
2018-08-08T02:52:03.047Z,24.3
2018-08-08T02:52:43.449Z,24.18
2018-08-08T02:53:23.854Z,24.21
2018-08-08T02:54:04.347Z,24.29
2018-08-08T02:54:44.690Z,24.3
2018-08-08T02:55:25.054Z,24.27
2018-08-08T02:56:05.600Z,24.3
2018-08-08T02:56:46.165Z,24.36
2018-08-08T02:57:26.291Z,24.46
2018-08-08T02:58:06.713Z,24.49
2018-08-08T02:58:47.125Z,24.55
2018-08-08T02:59:27.587Z,24.6
2018-08-08T03:00:08.049Z,24.61
2018-08-08T03:00:48.457Z,24.7
2018-08-08T03:01:28.928Z,24.74
2018-08-08T03:02:09.280Z,24.75
2018-08-08T03:02:49.692Z,24.77
2018-08-08T03:03:30.123Z,24.8
2018-08-08T03:04:10.474Z,24.86
2018-08-08T03:04:50.869Z,24.92
2018-08-08T03:05:31.310Z,24.94
2018-08-08T03:06:11.697Z,24.94
2018-08-08T03:06:52.111Z,25.01
2018-08-08T03:07:32.510Z,25.08
2018-08-08T03:08:12.900Z,25.08
2018-08-08T03:08:53.354Z,25.01
2018-08-08T03:09:33.753Z,25.14
2018-08-08T03:10:14.248Z,25.2
2018-08-08T03:10:54.611Z,25.19
2018-08-08T03:11:35.089Z,25.27
2018-08-08T03:12:15.477Z,25.22
2018-08-08T03:12:55.856Z,25.23
2018-08-08T03:13:36.336Z,25.26
2018-08-08T03:14:16.815Z,25.19
2018-08-08T03:14:57.145Z,25.3
2018-08-08T03:15:37.559Z,25.2
2018-08-08T03:16:17.977Z,25.3
2018-08-08T03:16:58.379Z,25.23
2018-08-08T03:17:38.736Z,25.27
2018-08-08T03:18:19.230Z,25.34
2018-08-08T03:18:59.589Z,25.31
2018-08-08T03:19:40.046Z,25.35
2018-08-08T03:20:20.466Z,25.38
2018-08-08T03:21:00.815Z,25.42
2018-08-08T03:21:41.214Z,25.36
2018-08-08T03:22:21.614Z,25.42
2018-08-08T03:23:02.017Z,25.46
2018-08-08T03:23:42.472Z,25.49
2018-08-08T03:24:23.055Z,25.44
2018-08-08T03:25:03.299Z,25.48
2018-08-08T03:25:43.720Z,25.46
2018-08-08T03:26:25.797Z,25.48
2018-08-08T03:27:06.350Z,25.42
2018-08-08T03:27:46.767Z,25.45
2018-08-08T03:28:27.182Z,25.48
2018-08-08T03:29:07.600Z,25.46
2018-08-08T03:29:48.006Z,25.44
2018-08-08T03:30:29.953Z,25.42
2018-08-08T03:31:10.468Z,25.38
2018-08-08T03:31:51.075Z,25.42
2018-08-08T03:32:31.310Z,25.36
2018-08-08T03:33:11.690Z,25.36
2018-08-08T03:33:52.091Z,25.39
2018-08-08T03:34:32.481Z,25.41
2018-08-08T03:35:12.938Z,25.39
2018-08-08T03:35:53.293Z,25.39
2018-08-08T03:36:33.732Z,25.39
2018-08-08T03:37:14.140Z,25.38
2018-08-08T03:37:54.504Z,25.31
2018-08-08T03:38:34.951Z,25.23
2018-08-08T03:39:15.338Z,25.26
2018-08-08T03:41:10.700Z,25.05
2018-08-08T03:41:52.722Z,25.04
2018-08-08T03:42:33.210Z,24.99
2018-08-08T03:43:14.180Z,24.98
2018-08-08T03:45:06.614Z,24.93
2018-08-08T03:45:46.950Z,24.97
2018-08-08T03:46:27.309Z,24.89
2018-08-08T03:47:07.786Z,24.92
2018-08-08T03:47:48.144Z,24.92
2018-08-08T03:48:28.589Z,24.9
2018-08-08T03:49:08.943Z,24.97
2018-08-08T03:50:58.413Z,25.11
2018-08-08T03:51:40.781Z,25.07
2018-08-08T03:52:21.159Z,25.09
2018-08-08T03:53:01.583Z,25.17
2018-08-08T03:53:41.997Z,25.17
2018-08-08T03:54:22.418Z,25.16
2018-08-08T03:55:02.863Z,25.16
2018-08-08T03:55:43.224Z,25.17
2018-08-08T03:56:23.603Z,25.22
2018-08-08T03:57:04.009Z,25.19
2018-08-08T03:57:44.446Z,25.22
2018-08-08T03:58:24.830Z,25.22
2018-08-08T03:59:05.243Z,25.23
2018-08-08T03:59:45.680Z,25.24
2018-08-08T04:00:26.099Z,25.26
2018-08-08T04:01:06.452Z,25.2
2018-08-08T04:01:46.886Z,25.2
2018-08-08T04:02:27.364Z,25.36
2018-08-08T04:03:07.800Z,25.34
2018-08-08T04:03:48.124Z,25.38
2018-08-08T04:04:28.579Z,25.29
2018-08-08T04:05:09.041Z,25.31
2018-08-08T04:05:49.518Z,25.36
2018-08-08T04:06:29.846Z,25.3
2018-08-08T04:07:10.214Z,25.35
2018-08-08T04:07:50.611Z,25.3
2018-08-08T04:08:31.079Z,25.31
2018-08-08T04:09:11.456Z,25.24
2018-08-08T04:09:51.914Z,25.2
2018-08-08T04:10:32.330Z,25.27
2018-08-08T04:11:12.770Z,25.17
2018-08-08T04:11:53.171Z,25.05
2018-08-08T04:12:33.623Z,25.04
2018-08-08T04:13:14.080Z,24.92
2018-08-08T04:13:54.499Z,24.92
2018-08-08T04:14:34.917Z,24.94
2018-08-08T04:15:15.307Z,24.89
2018-08-08T04:15:55.818Z,24.94
2018-08-08T04:16:36.198Z,24.98
2018-08-08T04:17:16.712Z,24.94
2018-08-08T04:17:57.094Z,24.94
2018-08-08T04:18:37.544Z,24.83
2018-08-08T04:19:17.957Z,24.84
2018-08-08T04:20:57.479Z,24.68
2018-08-08T04:27:49.664Z,24.18
2018-08-08T04:28:30.026Z,24.16
2018-08-08T05:09:29.976Z,20.6
2018-08-08T05:10:10.327Z,20.58
2018-08-08T05:10:50.612Z,20.58
2018-08-08T05:11:30.991Z,20.66
2018-08-08T05:12:11.444Z,20.58
2018-08-08T05:12:51.890Z,20.66
2018-08-08T05:13:32.301Z,20.69
2018-08-08T05:14:12.633Z,20.63
2018-08-08T05:14:53.142Z,20.66
2018-08-08T05:15:33.512Z,20.63
2018-08-08T05:16:13.941Z,20.68
2018-08-08T05:16:54.412Z,20.66
2018-08-08T05:17:34.830Z,20.68
2018-08-08T05:18:15.246Z,20.71
2018-08-08T05:18:55.620Z,20.71
2018-08-08T05:19:36.079Z,20.64
2018-08-08T05:20:16.631Z,20.66
2018-08-08T05:20:56.932Z,20.71
2018-08-08T05:21:37.327Z,20.68
2018-08-08T05:22:17.707Z,20.75
2018-08-08T05:22:58.193Z,20.81
2018-08-08T05:23:38.556Z,20.76
2018-08-08T05:24:18.935Z,20.75
2018-08-08T05:24:59.333Z,20.79
2018-08-08T05:25:39.802Z,20.87
2018-08-08T05:26:20.256Z,20.9
2018-08-08T05:27:00.569Z,20.88
2018-08-08T05:27:41.037Z,20.97
2018-08-08T05:28:21.453Z,20.91
2018-08-08T05:29:01.857Z,20.98
2018-08-08T05:29:42.228Z,21.01
2018-08-08T05:31:56.263Z,21.05
2018-08-08T05:32:42.262Z,21.03
2018-08-08T05:33:19.576Z,21.05
2018-08-08T05:34:00.835Z,21.16
2018-08-08T05:34:41.207Z,21.22
2018-08-08T05:35:22.047Z,21.24
2018-08-08T05:36:02.655Z,21.22
2018-08-08T05:36:43.173Z,21.33
2018-08-08T05:37:23.618Z,21.31
2018-08-08T05:38:04.847Z,21.4
2018-08-08T05:38:45.159Z,21.38
2018-08-08T05:39:26.082Z,21.48
2018-08-08T05:40:06.401Z,21.43
2018-08-08T05:40:46.979Z,21.46
2018-08-08T05:41:27.216Z,21.55
2018-08-08T05:42:07.751Z,21.56
2018-08-08T05:42:54.756Z,21.53
2018-08-08T05:43:37.442Z,21.55
2018-08-08T05:44:18.442Z,21.64
2018-08-08T05:44:59.164Z,21.63
2018-08-08T05:45:39.442Z,21.63
2018-08-08T05:46:19.989Z,21.59
2018-08-08T05:47:01.191Z,21.64
2018-08-08T05:47:41.511Z,21.59
2018-08-08T05:48:22.143Z,21.61
2018-08-08T05:49:03.054Z,21.68
2018-08-08T05:49:44.142Z,21.63
2018-08-08T05:50:24.284Z,21.74
2018-08-08T05:51:05.380Z,21.68
2018-08-08T05:51:44.997Z,21.79
2018-08-08T05:52:26.160Z,21.83
2018-08-08T05:53:07.074Z,21.82
2018-08-08T05:53:50.665Z,21.9
2018-08-08T05:54:31.757Z,21.91
2018-08-08T05:55:12.172Z,21.96
2018-08-08T05:58:21.620Z,22.11
2018-08-08T05:59:03.655Z,22.06
2018-08-08T05:59:44.261Z,22.19
2018-08-08T06:00:25.195Z,22.17
2018-08-08T06:01:05.526Z,22.24
2018-08-08T06:01:51.120Z,22.29
2018-08-08T06:02:34.275Z,22.35
2018-08-08T06:03:14.037Z,22.35
2018-08-08T06:03:54.546Z,22.38
2018-08-08T06:04:36.898Z,22.35
2018-08-08T06:05:18.617Z,22.39
2018-08-08T06:06:02.662Z,22.44
2018-08-08T06:06:46.894Z,22.44
2018-08-08T06:07:31.121Z,22.38
2018-08-08T06:08:12.111Z,22.46
2018-08-08T06:08:56.536Z,22.41
2018-08-08T06:09:37.490Z,22.49
2018-08-08T06:10:21.365Z,22.46
2018-08-08T06:11:03.055Z,22.49
2018-08-08T06:11:43.959Z,22.56
2018-08-08T06:12:28.041Z,22.52
2018-08-08T06:13:13.285Z,22.61
2018-08-08T06:13:53.351Z,22.63
2018-08-08T06:14:34.062Z,22.6
2018-08-08T06:15:16.125Z,22.67
2018-08-08T06:15:58.774Z,22.78
2018-08-08T06:16:40.048Z,22.82
2018-08-08T06:17:23.181Z,22.78
2018-08-08T06:18:02.446Z,22.82
2018-08-08T06:18:44.852Z,22.82
2018-08-08T06:19:25.356Z,22.86
2018-08-08T06:20:06.911Z,22.99
2018-08-08T06:20:49.610Z,22.97
2018-08-08T06:21:30.624Z,23.07
2018-08-08T06:22:11.029Z,23.06
2018-08-08T06:22:51.452Z,23
2018-08-08T06:23:34.816Z,23.09
2018-08-08T06:24:15.765Z,23.11
2018-08-08T06:24:56.108Z,23.07
2018-08-08T06:25:36.568Z,23.07
2018-08-08T06:26:17.132Z,23.11
2018-08-08T06:26:58.688Z,23.18
2018-08-08T06:27:39.181Z,23.12
2018-08-08T06:28:19.650Z,23.07
2018-08-08T06:29:00.149Z,23.21
2018-08-08T06:29:41.284Z,23.21
2018-08-08T06:30:21.989Z,23.29
2018-08-08T06:31:02.702Z,23.29
2018-08-08T06:31:43.155Z,23.35
2018-08-08T06:32:23.647Z,23.41
2018-08-08T06:33:04.378Z,23.45
2018-08-08T06:33:44.811Z,23.39
2018-08-08T06:34:25.676Z,23.6
2018-08-08T06:35:07.403Z,23.49
2018-08-08T06:35:48.013Z,23.59
2018-08-08T06:36:28.418Z,23.68
2018-08-08T06:37:08.855Z,23.75
2018-08-08T06:37:49.247Z,23.67
2018-08-08T06:38:29.748Z,23.77
2018-08-08T06:39:10.275Z,23.82
2018-08-08T06:39:50.780Z,23.86
2018-08-08T06:40:31.237Z,23.87
2018-08-08T06:41:12.004Z,23.82
2018-08-08T06:41:52.958Z,24.02
2018-08-08T06:42:32.768Z,24.09
2018-08-08T06:43:13.219Z,24.06
2018-08-08T06:43:53.673Z,24.09
2018-08-08T06:44:34.645Z,24.21
2018-08-08T06:45:14.934Z,24.18
2018-08-08T06:45:55.752Z,24.21
2018-08-08T06:46:36.301Z,24.26
2018-08-08T06:47:17.320Z,24.26
2018-08-08T06:49:25.078Z,24.41
2018-08-08T06:50:16.232Z,24.49
2018-08-08T06:51:11.263Z,24.49
2018-08-08T06:52:04.617Z,24.61
2018-08-08T06:52:57.861Z,24.67
2018-08-08T06:53:50.384Z,24.84
2018-08-08T06:54:43.668Z,24.84
2018-08-08T06:55:39.283Z,25.04
2018-08-08T06:56:32.423Z,25.24
2018-08-08T06:57:26.148Z,25.31
2018-08-08T06:58:19.438Z,25.61
2018-08-08T06:59:14.089Z,25.76
2018-08-08T07:00:58.407Z,26.06
2018-08-08T07:01:52.048Z,26.24
2018-08-08T07:03:00.136Z,26.49
2018-08-08T07:03:55.200Z,26.6
2018-08-08T07:05:51.302Z,26.96
2018-08-08T07:06:52.705Z,27.25
2018-08-08T07:09:38.018Z,27.48
2018-08-08T07:10:18.591Z,27.59
2018-08-08T07:10:59.024Z,27.62
2018-08-08T07:11:40.215Z,27.58
2018-08-08T07:12:20.526Z,27.39
2018-08-08T07:13:00.962Z,27.25
2018-08-08T07:13:41.869Z,27.13
2018-08-08T07:14:22.477Z,26.97
2018-08-08T07:15:02.799Z,27.01
2018-08-08T07:15:46.936Z,27.02
2018-08-08T07:16:27.435Z,26.98
2018-08-08T07:17:10.998Z,27.06
2018-08-08T07:17:51.430Z,27.05
2018-08-08T07:18:34.150Z,27.15
2018-08-08T07:19:14.422Z,27.16
2018-08-08T07:19:54.969Z,27.12
2018-08-08T07:20:37.438Z,27.18
2018-08-08T07:21:17.829Z,27.25
2018-08-08T07:21:59.466Z,27.27
2018-08-08T07:22:41.478Z,27.23
2018-08-08T07:23:24.838Z,27.18
2018-08-08T07:24:05.362Z,27.24
2018-08-08T07:24:45.707Z,27.2
2018-08-08T07:25:27.621Z,27.2
2018-08-08T07:26:06.927Z,27.13
2018-08-08T07:26:51.013Z,27.25
2018-08-08T07:27:32.732Z,27.24
2018-08-08T07:28:12.986Z,27.33
2018-08-08T07:28:53.410Z,27.3
2018-08-08T07:29:33.919Z,27.31
2018-08-08T07:30:14.609Z,27.43
2018-08-08T07:30:54.813Z,27.42
2018-08-08T07:31:35.276Z,27.35
2018-08-08T07:32:15.739Z,27.4
2018-08-08T07:32:56.127Z,27.49
2018-08-08T07:33:36.529Z,27.48
2018-08-08T07:34:18.922Z,27.55
2018-08-08T07:34:59.459Z,27.5
2018-08-08T07:35:44.701Z,27.62
2018-08-08T07:37:49.817Z,27.9
2018-08-08T07:38:36.434Z,27.81
2018-08-08T07:39:16.748Z,27.9
2018-08-08T07:39:57.273Z,27.87
2018-08-08T07:40:37.677Z,27.91
2018-08-08T07:41:18.060Z,27.9
2018-08-08T07:41:58.831Z,27.95
2018-08-08T07:42:39.493Z,27.96
2018-08-08T07:43:20.106Z,28.05
2018-08-08T07:44:00.480Z,28.17
2018-08-08T07:44:40.845Z,28.21
2018-08-08T07:45:21.283Z,28.23
2018-08-08T07:46:01.737Z,28.24
2018-08-08T07:46:42.178Z,28.25
2018-08-08T07:47:23.532Z,28.23
2018-08-08T07:48:09.058Z,28.35
2018-08-08T07:48:49.143Z,28.32
2018-08-08T07:49:29.677Z,28.33
2018-08-08T07:50:09.989Z,28.45
2018-08-08T07:52:31.017Z,28.5
2018-08-08T07:53:25.419Z,28.65
2018-08-08T07:54:05.315Z,28.64
2018-08-08T07:54:45.860Z,28.73
2018-08-08T08:02:19.059Z,28.97
2018-08-08T08:07:10.148Z,29.67
2018-08-08T08:08:14.713Z,29.79
2018-08-08T08:09:11.520Z,29.82
2018-08-08T08:10:13.289Z,29.89
2018-08-08T08:11:23.839Z,29.95
2018-08-08T08:12:27.937Z,30.07
2018-08-08T08:13:32.084Z,30.19
2018-08-08T08:14:30.530Z,30.3
2018-08-08T08:16:26.318Z,30.61
2018-08-08T08:17:30.207Z,30.6
2018-08-08T08:18:26.156Z,30.78
2018-08-08T08:19:21.815Z,30.63
2018-08-08T08:20:26.104Z,30.61
2018-08-08T08:21:27.408Z,30.59
2018-08-08T08:22:31.004Z,30.56
2018-08-08T08:23:37.970Z,30.4
2018-08-08T08:24:48.308Z,30.49
2018-08-08T08:25:43.942Z,30.72
2018-08-08T08:30:01.258Z,31.3
2018-08-08T08:30:57.328Z,31.37
2018-08-08T08:31:56.584Z,31.32
2018-08-08T08:34:40.980Z,31.32
2018-08-08T08:35:35.767Z,31.2
2018-08-08T08:37:39.285Z,31.05
2018-08-08T08:38:32.840Z,31.03
2018-08-08T08:39:28.264Z,31.12
2018-08-08T08:40:24.772Z,31.13
2018-08-08T08:42:17.924Z,31.31
2018-08-08T08:42:58.127Z,31.37
2018-08-08T08:43:38.661Z,31.49
2018-08-08T08:44:20.144Z,31.45
2018-08-08T08:45:01.417Z,31.4
2018-08-08T08:45:44.848Z,31.1
2018-08-08T08:46:25.399Z,31.23
2018-08-08T08:47:06.753Z,31.15
2018-08-08T08:47:47.234Z,31.2
2018-08-08T08:48:27.700Z,31.38
2018-08-08T08:49:08.601Z,31.42
2018-08-08T08:49:49.027Z,31.67
2018-08-08T08:50:29.525Z,31.74
2018-08-08T08:51:09.962Z,31.92
2018-08-08T08:53:28.075Z,32.4
2018-08-08T08:54:22.086Z,32.56
2018-08-08T08:55:16.462Z,32.62
2018-08-08T08:56:15.125Z,32.78
2018-08-08T08:57:10.120Z,32.84
2018-08-08T08:58:07.967Z,33.03
2018-08-08T08:59:02.770Z,32.84
2018-08-08T08:59:50.988Z,32.88
2018-08-08T09:00:34.080Z,32.98
2018-08-08T09:01:15.436Z,33.05
2018-08-08T09:01:57.307Z,33.05
2018-08-08T09:02:45.633Z,33.03
2018-08-08T09:03:27.891Z,32.93
2018-08-08T09:04:11.463Z,32.81
2018-08-08T09:04:58.584Z,32.87
2018-08-08T09:08:34.087Z,33.18
2018-08-08T09:09:15.752Z,33.26
2018-08-08T09:09:56.034Z,33.26
2018-08-08T09:10:37.227Z,33.14
2018-08-08T09:11:17.948Z,33.26
2018-08-08T09:11:58.446Z,33.11
2018-08-08T09:12:39.827Z,33.12
2018-08-08T09:13:21.377Z,33.21
2018-08-08T09:14:02.138Z,33.33
2018-08-08T09:14:43.354Z,33.29
2018-08-08T09:15:23.982Z,33.17
2018-08-08T09:16:04.455Z,33.11
2018-08-08T09:16:45.723Z,33.05
2018-08-08T09:17:26.991Z,32.98
2018-08-08T09:18:07.301Z,32.91
2018-08-08T09:18:48.242Z,32.85
2018-08-08T09:19:29.964Z,32.54
2018-08-08T09:20:10.570Z,32.1
2018-08-08T09:20:51.788Z,31.84
2018-08-08T09:21:32.834Z,31.6
2018-08-08T09:23:27.918Z,31.38
2018-08-08T09:24:25.906Z,31.22
2018-08-08T09:25:26.852Z,31.16
2018-08-08T09:26:23.945Z,31.04
2018-08-08T09:28:21.700Z,31.05
2018-08-08T09:29:02.249Z,31.18
2018-08-08T09:30:46.470Z,31.12
2018-08-08T09:31:43.268Z,31.05
2018-08-08T09:32:50.445Z,31.12
2018-08-08T09:33:47.038Z,31.09
2018-08-08T09:34:45.656Z,31.05
2018-08-08T09:35:55.212Z,31.01
2018-08-08T09:37:01.946Z,30.96
2018-08-08T09:38:10.258Z,31
2018-08-08T09:39:08.420Z,31.03
2018-08-08T09:40:14.489Z,30.63
2018-08-08T09:41:15.100Z,30.28
2018-08-08T09:42:14.661Z,30.26
2018-08-08T09:43:13.891Z,30.16
2018-08-08T09:44:11.229Z,30.19
2018-08-08T09:46:11.233Z,30.07
2018-08-08T09:49:33.262Z,29.67
2018-08-08T09:52:14.485Z,29.78
2018-08-08T09:52:56.211Z,29.85
2018-08-08T09:53:37.217Z,29.84
2018-08-08T09:55:42.408Z,29.74
2018-08-08T10:04:00.387Z,29.52
2018-08-08T10:05:00.428Z,29.36
2018-08-08T10:06:06.833Z,29.29
2018-08-08T10:07:05.008Z,29.08
2018-08-08T10:08:11.575Z,28.94
2018-08-08T10:10:59.751Z,28.97
2018-08-08T10:12:24.389Z,28.8
2018-08-08T10:15:05.960Z,28.83
2018-08-08T10:17:21.718Z,28.94
2018-08-08T10:18:23.467Z,28.82
2018-08-08T10:24:20.546Z,28.61
2018-08-08T10:25:24.966Z,28.55
2018-08-08T10:26:27.267Z,28.61
2018-08-08T10:27:25.064Z,28.6
2018-08-08T10:28:20.069Z,28.6
2018-08-08T10:29:17.209Z,28.64
2018-08-08T11:07:10.049Z,29.35
2018-08-08T11:07:49.959Z,29.42
2018-08-08T11:08:30.546Z,29.57
2018-08-08T11:09:11.684Z,29.67
2018-08-08T11:09:52.383Z,29.92
2018-08-08T11:10:33.300Z,30.01
2018-08-08T11:11:14.575Z,30.21
2018-08-08T11:11:56.364Z,30.23
2018-08-08T11:12:37.167Z,30.4
2018-08-08T11:13:18.375Z,30.28
2018-08-08T11:13:59.146Z,30.21
2018-08-08T11:14:39.895Z,30.29
2018-08-08T11:15:20.360Z,30.37
2018-08-08T11:16:00.763Z,30.36
2018-08-08T11:16:41.184Z,30.3
2018-08-08T11:17:24.932Z,30.19
2018-08-08T11:18:05.670Z,30.25
2018-08-08T11:18:47.030Z,30.07
2018-08-08T11:19:28.565Z,30.11
2018-08-08T11:20:09.218Z,29.99
2018-08-08T11:20:49.718Z,29.97
2018-08-08T11:21:30.320Z,30
2018-08-08T11:22:13.431Z,30.1
2018-08-08T11:22:54.098Z,30.19
2018-08-08T11:23:35.305Z,30.25
2018-08-08T11:24:16.589Z,30.28
2018-08-08T11:25:03.819Z,30.36
2018-08-08T11:25:45.124Z,30.25
2018-08-08T11:26:25.634Z,30.28
2018-08-08T11:28:14.607Z,30.29
2018-08-08T11:32:24.259Z,30.15
2018-08-08T11:33:16.638Z,29.99
2018-08-08T11:34:08.770Z,29.89
2018-08-08T11:35:01.905Z,29.88
2018-08-08T11:35:55.729Z,29.82
2018-08-08T11:36:50.141Z,29.82
2018-08-08T11:37:43.067Z,29.91
2018-08-08T11:38:36.120Z,29.94
2018-08-08T11:39:31.827Z,29.97
2018-08-08T11:40:28.286Z,29.91
2018-08-08T11:41:20.150Z,29.97
2018-08-08T11:43:17.411Z,29.91
2018-08-08T11:44:34.399Z,29.94
2018-08-08T11:45:14.887Z,29.79
2018-08-08T11:45:55.590Z,29.66
2018-08-08T11:46:36.452Z,29.69
2018-08-08T11:47:16.912Z,29.67
2018-08-08T11:47:57.942Z,29.62
2018-08-08T11:48:39.862Z,29.45
2018-08-08T11:49:21.353Z,29.48
2018-08-08T11:50:05.809Z,29.49
2018-08-08T11:50:45.968Z,29.49
2018-08-08T11:51:27.763Z,29.57
2018-08-08T11:52:08.632Z,29.57
2018-08-08T11:52:49.026Z,29.55
2018-08-08T11:53:29.523Z,29.67
2018-08-08T11:54:10.622Z,29.63
2018-08-08T11:54:51.621Z,29.55
2018-08-08T11:55:32.369Z,29.51
2018-08-08T11:56:13.203Z,29.49
2018-08-08T11:56:55.263Z,29.48
2018-08-08T11:57:36.662Z,29.54
2018-08-08T11:58:16.625Z,29.62
2018-08-08T11:58:56.974Z,29.64
2018-08-08T11:59:37.514Z,29.69
2018-08-08T12:00:18.022Z,29.85
2018-08-08T12:00:58.507Z,29.91
2018-08-08T12:01:39.929Z,29.92
2018-08-08T12:02:20.611Z,30.06
2018-08-08T12:03:01.081Z,30.04
2018-08-08T12:03:41.655Z,30.13
2018-08-08T12:05:33.749Z,30.25
2018-08-08T12:06:28.593Z,30.32
2018-08-08T12:07:23.956Z,30.48
2018-08-08T12:08:19.222Z,30.53
2018-08-08T12:10:20.516Z,30.78
2018-08-08T12:11:14.613Z,30.86
2018-08-08T12:12:11.112Z,31.15
2018-08-08T12:13:05.734Z,31.31
2018-08-08T12:14:00.867Z,31.54
2018-08-08T12:14:57.249Z,31.71
2018-08-08T12:15:48.808Z,31.85
2018-08-08T12:16:41.013Z,31.87
2018-08-08T12:17:36.386Z,32.1
2018-08-08T12:18:31.776Z,32.22
2018-08-08T12:19:22.985Z,32.34
2018-08-08T12:20:15.295Z,32.32
2018-08-08T12:21:59.492Z,32.22
2018-08-08T12:22:38.019Z,32.13
2018-08-08T12:23:18.497Z,32.14
2018-08-08T12:24:00.142Z,32.03
2018-08-08T12:24:40.894Z,31.91
2018-08-08T12:25:21.386Z,31.87
2018-08-08T12:26:02.105Z,31.76
2018-08-08T12:26:42.910Z,31.76
2018-08-08T12:27:23.318Z,31.84
2018-08-08T12:28:04.668Z,31.88
2018-08-08T12:28:47.090Z,31.85
2018-08-08T12:29:29.248Z,31.85
2018-08-08T12:30:09.712Z,31.84
2018-08-08T12:30:50.207Z,31.91
2018-08-08T12:31:31.271Z,31.84
2018-08-08T12:32:11.852Z,31.85
2018-08-08T12:32:53.299Z,31.88
2018-08-08T12:33:34.020Z,31.97
2018-08-08T12:34:16.139Z,32.07
2018-08-08T12:34:56.482Z,32.09
2018-08-08T12:35:36.966Z,32.12